createdAt,value
2022-11-20T00:03:15.426Z,28.15
2022-11-20T00:08:01.017Z,23.38
2022-11-20T00:12:46.765Z,19.10
2022-11-20T00:17:32.300Z,26.23
2022-11-20T00:22:20.789Z,22.55
2022-11-20T00:27:05.924Z,26.80
2022-11-20T00:31:51.623Z,21.27
2022-11-20T00:36:38.632Z,22.88
2022-11-20T00:41:27.535Z,24.48
2022-11-20T00:46:16.824Z,16.67
2022-11-20T00:51:02.779Z,17.65
2022-11-20T00:55:55.947Z,17.05
2022-11-20T01:00:43.867Z,15.52
2022-11-20T01:05:28.968Z,15.43
2022-11-20T01:10:14.406Z,18.10
2022-11-20T01:14:59.522Z,16.25
2022-11-20T01:19:47.563Z,15.82
2022-11-20T01:24:32.613Z,21.60
2022-11-20T01:29:20.636Z,22.73
2022-11-20T01:34:07.989Z,14.40
2022-11-20T01:38:59.007Z,13.05
2022-11-20T01:43:44.075Z,11.60
2022-11-20T01:48:33.858Z,18.48
2022-11-20T01:53:22.495Z,15.48
2022-11-20T01:58:10.639Z,21.15
2022-11-20T02:03:00.456Z,18.38
2022-11-20T02:07:46.084Z,14.93
2022-11-20T02:12:43.863Z,12.13
2022-11-20T02:17:32.090Z,13.70
2022-11-20T02:22:22.634Z,10.55
2022-11-20T02:27:13.883Z,12.85
2022-11-20T02:32:02.071Z,18.52
2022-11-20T02:36:48.303Z,13.02
2022-11-20T02:41:38.139Z,13.77
2022-11-20T02:46:26.826Z,10.95
2022-11-20T02:51:12.151Z,14.00
2022-11-20T02:55:57.421Z,11.68
2022-11-20T03:00:42.404Z,12.00
2022-11-20T03:05:30.331Z,10.75
2022-11-20T03:10:15.639Z,16.45
2022-11-20T03:15:00.933Z,12.27
2022-11-20T03:19:46.049Z,9.93
2022-11-20T03:24:34.084Z,15.18
2022-11-20T03:29:19.468Z,13.07
2022-11-20T03:34:05.386Z,12.52
2022-11-20T03:38:50.927Z,11.07
2022-11-20T03:43:39.373Z,15.20
2022-11-20T03:48:24.432Z,10.07
2022-11-20T03:53:09.671Z,12.85
2022-11-20T03:57:54.667Z,11.80
2022-11-20T04:02:42.548Z,14.63
2022-11-20T04:07:27.585Z,9.93
2022-11-20T04:12:12.859Z,14.02
2022-11-20T04:16:57.851Z,12.93
2022-11-20T04:21:45.839Z,12.82
2022-11-20T04:26:32.539Z,11.85
2022-11-20T04:31:19.958Z,11.68
2022-11-20T04:36:06.627Z,15.15
2022-11-20T04:40:54.487Z,12.65
2022-11-20T04:45:39.504Z,11.63
2022-11-20T04:50:24.816Z,10.05
2022-11-20T04:55:11.263Z,9.25
2022-11-20T04:59:59.167Z,11.68
2022-11-20T05:04:44.221Z,11.48
2022-11-20T05:09:29.571Z,11.07
2022-11-20T05:14:14.571Z,11.07
2022-11-20T05:19:02.557Z,11.35
2022-11-20T05:23:48.772Z,10.20
2022-11-20T05:28:35.463Z,8.32
2022-11-20T05:33:21.030Z,12.00
2022-11-20T05:38:08.968Z,14.05
2022-11-20T05:42:54.008Z,7.93
2022-11-20T05:47:39.349Z,10.90
2022-11-20T05:52:24.500Z,15.25
2022-11-20T05:57:12.595Z,11.63
2022-11-20T06:01:57.659Z,8.98
2022-11-20T06:06:42.952Z,6.32
2022-11-20T06:11:27.975Z,9.73
2022-11-20T06:16:18.279Z,10.15
2022-11-20T06:21:05.260Z,50.78
2022-11-20T06:25:50.507Z,15.57
2022-11-20T06:30:35.625Z,15.93
2022-11-20T06:35:23.479Z,12.13
2022-11-20T06:40:10.177Z,8.70
2022-11-20T06:44:55.480Z,12.07
2022-11-20T06:49:41.063Z,11.68
2022-11-20T06:54:28.935Z,14.27
2022-11-20T06:59:14.156Z,8.23
2022-11-20T07:03:59.402Z,9.63
2022-11-20T07:08:44.412Z,17.55
2022-11-20T07:13:33.383Z,10.45
2022-11-20T07:18:18.398Z,9.32
2022-11-20T07:23:03.668Z,10.77
2022-11-20T07:27:48.672Z,6.68
2022-11-20T07:32:37.148Z,10.07
2022-11-20T07:37:22.215Z,13.38
2022-11-20T07:42:07.583Z,10.20
2022-11-20T07:46:52.604Z,13.38
2022-11-20T07:51:40.446Z,10.73
2022-11-20T07:56:25.408Z,16.25
2022-11-20T08:01:11.698Z,10.80
2022-11-20T08:05:56.712Z,11.43
2022-11-20T08:10:44.637Z,5.75
2022-11-20T08:15:29.640Z,8.20
2022-11-20T08:20:15.083Z,6.97
2022-11-20T08:25:00.127Z,6.05
2022-11-20T08:29:48.038Z,5.80
2022-11-20T08:34:33.015Z,4.88
2022-11-20T08:39:18.604Z,3.92
2022-11-20T08:44:05.339Z,14.77
2022-11-20T08:48:53.466Z,10.23
2022-11-20T08:53:38.508Z,36.40
2022-11-20T08:58:23.994Z,10.75
2022-11-20T09:03:09.040Z,2.40
2022-11-20T09:08:00.343Z,7.78
2022-11-20T09:12:45.356Z,8.60
2022-11-20T09:17:30.653Z,15.48
2022-11-20T09:22:15.725Z,12.40
2022-11-20T09:27:05.979Z,14.23
2022-11-20T09:31:50.970Z,11.48
2022-11-20T09:36:36.248Z,35.35
2022-11-20T09:41:40.354Z,24.35
2022-11-20T09:46:35.823Z,14.60
2022-11-20T09:51:36.200Z,15.95
2022-11-20T09:56:23.131Z,20.90
2022-11-20T10:01:15.360Z,20.65
2022-11-20T10:06:05.971Z,27.15
2022-11-20T10:10:58.001Z,29.00
2022-11-20T10:15:53.356Z,32.25
2022-11-20T10:20:48.569Z,50.78
2022-11-20T10:25:42.847Z,42.40
2022-11-20T10:30:28.435Z,46.38
2022-11-20T10:35:24.040Z,52.17
2022-11-20T10:40:24.871Z,46.17
2022-11-20T10:45:23.967Z,46.33
2022-11-20T10:50:20.560Z,39.35
2022-11-20T10:55:29.513Z,41.55
2022-11-20T11:00:18.355Z,41.42
2022-11-20T11:05:14.685Z,44.13
2022-11-20T11:10:01.101Z,41.08
2022-11-20T11:14:51.598Z,38.17
2022-11-20T11:19:39.615Z,36.08
2022-11-20T11:24:43.190Z,27.98
2022-11-20T11:29:31.771Z,32.17
2022-11-20T11:34:18.495Z,33.28
2022-11-20T11:39:08.396Z,23.67
2022-11-20T11:44:09.812Z,36.13
2022-11-20T11:49:00.643Z,25.70
2022-11-20T11:53:46.989Z,29.75
2022-11-20T11:58:45.789Z,23.98
2022-11-20T12:03:38.206Z,35.10
2022-11-20T12:08:29.274Z,25.65
2022-11-20T12:13:25.759Z,25.90
2022-11-20T12:18:19.029Z,31.17
2022-11-20T12:23:13.489Z,24.65
2022-11-20T12:28:23.383Z,26.67
2022-11-20T12:33:31.599Z,26.65
2022-11-20T12:38:36.009Z,20.25
2022-11-20T12:43:37.131Z,17.73
2022-11-20T12:48:46.260Z,21.33
2022-11-20T12:53:41.246Z,13.57
2022-11-20T12:58:36.049Z,22.83
2022-11-20T13:03:55.031Z,20.63
2022-11-20T13:08:43.995Z,20.15
2022-11-20T13:13:36.131Z,21.02
2022-11-20T13:18:22.078Z,20.40
2022-11-20T13:23:09.977Z,23.83
2022-11-20T13:27:59.441Z,23.80
2022-11-20T13:32:53.509Z,26.13
2022-11-20T13:37:40.364Z,17.10
2022-11-20T13:42:31.849Z,17.77
2022-11-20T13:47:25.610Z,13.20
2022-11-20T13:52:37.603Z,25.25
2022-11-20T13:57:51.568Z,23.95
2022-11-20T14:02:37.189Z,22.10
2022-11-20T14:07:24.595Z,19.50
2022-11-20T14:12:21.568Z,18.33
2022-11-20T14:17:20.947Z,16.33
2022-11-20T14:22:20.586Z,15.32
2022-11-20T14:27:07.319Z,22.02
2022-11-20T14:31:56.800Z,24.52
2022-11-20T14:36:46.792Z,24.92
2022-11-20T14:41:33.320Z,24.42
2022-11-20T14:46:19.292Z,22.27
2022-11-20T14:51:04.700Z,25.52
2022-11-20T14:55:59.870Z,27.38
2022-11-20T15:00:44.938Z,22.05
2022-11-20T15:05:49.464Z,25.50
2022-11-20T15:10:34.965Z,28.80
2022-11-20T15:15:27.368Z,26.85
2022-11-20T15:20:17.439Z,25.35
2022-11-20T15:25:02.528Z,28.10
2022-11-20T15:29:47.968Z,25.40
2022-11-20T15:34:35.609Z,34.17
2022-11-20T15:39:20.885Z,25.40
2022-11-20T15:44:06.526Z,32.38
2022-11-20T15:48:57.628Z,27.55
2022-11-20T15:53:46.195Z,30.67
2022-11-20T15:58:31.467Z,39.63
2022-11-20T16:03:17.527Z,35.85
2022-11-20T16:08:06.000Z,46.63
2022-11-20T16:13:08.482Z,34.30
2022-11-20T16:17:53.749Z,37.80
2022-11-20T16:22:38.756Z,60.78
2022-11-20T16:27:24.004Z,56.20
2022-11-20T16:32:13.361Z,52.45
2022-11-20T16:36:58.662Z,45.25
2022-11-20T16:41:44.346Z,38.20
2022-11-20T16:46:32.094Z,32.63
2022-11-20T16:51:20.055Z,34.80
2022-11-20T16:56:14.123Z,29.80
2022-11-20T17:00:59.543Z,38.97
2022-11-20T17:05:44.591Z,50.35
2022-11-20T17:10:32.561Z,70.47
2022-11-20T17:15:17.605Z,64.18
2022-11-20T17:20:03.071Z,74.82
2022-11-20T17:24:48.310Z,61.15
2022-11-20T17:29:41.747Z,66.28
2022-11-20T17:34:27.549Z,52.13
2022-11-20T17:39:13.434Z,53.35
2022-11-20T17:44:00.849Z,52.13
2022-11-20T17:48:50.271Z,52.63
2022-11-20T17:53:38.473Z,49.72
2022-11-20T17:58:24.135Z,56.28
2022-11-20T18:03:09.208Z,66.30
2022-11-20T18:07:58.646Z,65.82
2022-11-20T18:12:44.111Z,82.03
2022-11-20T18:17:29.372Z,82.30
2022-11-20T18:22:15.442Z,99.88
2022-11-20T18:27:03.331Z,148.90
2022-11-20T18:31:48.677Z,157.00
2022-11-20T18:36:35.289Z,128.75
2022-11-20T18:41:34.495Z,147.60
2022-11-20T18:46:22.458Z,120.70
2022-11-20T18:51:08.936Z,97.28
2022-11-20T18:55:53.931Z,76.40
2022-11-20T19:00:39.239Z,81.88
2022-11-20T19:05:27.178Z,54.75
2022-11-20T19:10:12.929Z,64.43
2022-11-20T19:14:58.247Z,63.05
2022-11-20T19:19:43.349Z,69.18
2022-11-20T19:24:31.331Z,110.80
2022-11-20T19:29:18.198Z,93.60
2022-11-20T19:34:04.911Z,91.65
2022-11-20T19:38:51.839Z,71.40
2022-11-20T19:43:40.123Z,87.53
2022-11-20T19:48:25.195Z,81.65
2022-11-20T19:53:11.744Z,77.80
2022-11-20T19:57:57.080Z,77.25
2022-11-20T20:02:44.756Z,66.05
2022-11-20T20:07:30.111Z,60.25
2022-11-20T20:12:15.127Z,69.00
2022-11-20T20:17:00.437Z,61.17
2022-11-20T20:21:48.272Z,63.20
2022-11-20T20:26:34.666Z,62.08
2022-11-20T20:31:21.338Z,65.78
2022-11-20T20:36:07.152Z,67.45
2022-11-20T20:40:55.100Z,66.57
2022-11-20T20:45:40.293Z,60.33
2022-11-20T20:50:25.942Z,79.47
2022-11-20T20:55:12.171Z,59.58
2022-11-20T21:00:00.105Z,45.25
2022-11-20T21:04:45.083Z,55.13
2022-11-20T21:09:30.396Z,92.18
2022-11-20T21:14:15.430Z,100.15
2022-11-20T21:19:03.349Z,78.72
2022-11-20T21:23:49.632Z,70.32
2022-11-20T21:28:35.460Z,66.50
2022-11-20T21:33:20.556Z,54.05
2022-11-20T21:38:08.513Z,53.50
2022-11-20T21:42:53.738Z,31.50
2022-11-20T21:47:39.035Z,33.65
2022-11-20T21:52:24.019Z,39.10
2022-11-20T21:57:11.896Z,30.90
2022-11-20T22:01:56.936Z,30.83
2022-11-20T22:06:42.263Z,38.35
2022-11-20T22:11:27.336Z,39.63
2022-11-20T22:16:15.694Z,31.83
2022-11-20T22:21:05.652Z,42.08
2022-11-20T22:25:50.996Z,68.63
2022-11-20T22:30:35.977Z,56.78
2022-11-20T22:35:23.896Z,52.70
2022-11-20T22:40:10.416Z,55.17
2022-11-20T22:44:55.674Z,48.35
2022-11-20T22:49:40.696Z,32.10
2022-11-20T22:54:28.579Z,53.47
2022-11-20T22:59:13.890Z,70.18
2022-11-20T23:04:00.958Z,44.35
2022-11-20T23:08:46.451Z,46.13
2022-11-20T23:13:34.368Z,65.28
2022-11-20T23:18:23.418Z,49.35
2022-11-20T23:23:08.446Z,40.92
2022-11-20T23:27:53.771Z,43.40
2022-11-20T23:32:41.421Z,55.58
2022-11-20T23:37:26.788Z,41.13
2022-11-20T23:42:11.833Z,43.38
2022-11-20T23:46:57.487Z,41.45
2022-11-20T23:51:45.090Z,44.65
2022-11-20T23:56:30.408Z,31.55
